sensor_id;sensor_type;location;lat;lon;timestamp;temperature;humidity
22568;DHT22;11450;50.818;4.382;2022-10-26T00:02:23;15.10;99.90
22568;DHT22;11450;50.818;4.382;2022-10-26T00:04:48;15.20;99.90
22568;DHT22;11450;50.818;4.382;2022-10-26T00:07:14;15.10;99.90
22568;DHT22;11450;50.818;4.382;2022-10-26T00:09:40;15.10;99.90
22568;DHT22;11450;50.818;4.382;2022-10-26T00:12:06;15.10;99.90
22568;DHT22;11450;50.818;4.382;2022-10-26T00:14:31;15.10;99.90
22568;DHT22;11450;50.818;4.382;2022-10-26T00:16:57;15.10;99.90
22568;DHT22;11450;50.818;4.382;2022-10-26T00:19:23;15.10;99.90
22568;DHT22;11450;50.818;4.382;2022-10-26T00:21:52;15.20;99.90
22568;DHT22;11450;50.818;4.382;2022-10-26T00:24:17;15.10;99.90
22568;DHT22;11450;50.818;4.382;2022-10-26T00:26:43;15.10;99.90
22568;DHT22;11450;50.818;4.382;2022-10-26T00:29:11;15.10;99.90
22568;DHT22;11450;50.818;4.382;2022-10-26T00:31:38;15.10;99.90
22568;DHT22;11450;50.818;4.382;2022-10-26T00:34:04;15.10;99.90
22568;DHT22;11450;50.818;4.382;2022-10-26T00:36:30;15.10;99.90
22568;DHT22;11450;50.818;4.382;2022-10-26T00:38:56;15.10;99.90
22568;DHT22;11450;50.818;4.382;2022-10-26T00:41:28;15.20;99.90
22568;DHT22;11450;50.818;4.382;2022-10-26T00:43:54;15.20;99.90
22568;DHT22;11450;50.818;4.382;2022-10-26T00:46:32;15.10;99.90
22568;DHT22;11450;50.818;4.382;2022-10-26T00:49:14;15.00;99.90
22568;DHT22;11450;50.818;4.382;2022-10-26T00:51:51;15.00;99.90
22568;DHT22;11450;50.818;4.382;2022-10-26T00:54:20;15.10;99.90
22568;DHT22;11450;50.818;4.382;2022-10-26T00:56:48;15.10;99.90
22568;DHT22;11450;50.818;4.382;2022-10-26T00:59:15;15.10;99.90
22568;DHT22;11450;50.818;4.382;2022-10-26T01:01:43;15.20;99.90
22568;DHT22;11450;50.818;4.382;2022-10-26T01:04:11;15.20;99.90
22568;DHT22;11450;50.818;4.382;2022-10-26T01:06:38;15.20;99.90
22568;DHT22;11450;50.818;4.382;2022-10-26T01:09:05;15.20;99.90
22568;DHT22;11450;50.818;4.382;2022-10-26T01:11:31;15.40;99.90
22568;DHT22;11450;50.818;4.382;2022-10-26T01:13:58;15.30;99.90
22568;DHT22;11450;50.818;4.382;2022-10-26T01:22:28;15.20;99.90
22568;DHT22;11450;50.818;4.382;2022-10-26T01:25:21;15.20;99.90
22568;DHT22;11450;50.818;4.382;2022-10-26T01:27:52;15.30;99.90
22568;DHT22;11450;50.818;4.382;2022-10-26T01:36:02;15.20;99.90
22568;DHT22;11450;50.818;4.382;2022-10-26T01:44:02;15.20;99.90
22568;DHT22;11450;50.818;4.382;2022-10-26T01:46:34;15.30;99.90
22568;DHT22;11450;50.818;4.382;2022-10-26T01:49:08;15.30;99.90
22568;DHT22;11450;50.818;4.382;2022-10-26T01:51:35;15.30;99.90
22568;DHT22;11450;50.818;4.382;2022-10-26T01:54:00;15.40;99.90
22568;DHT22;11450;50.818;4.382;2022-10-26T01:56:29;15.30;99.90
22568;DHT22;11450;50.818;4.382;2022-10-26T02:05:20;15.40;99.90
22568;DHT22;11450;50.818;4.382;2022-10-26T02:08:26;15.40;99.90
22568;DHT22;11450;50.818;4.382;2022-10-26T02:11:22;15.40;99.90
22568;DHT22;11450;50.818;4.382;2022-10-26T02:14:52;15.50;99.90
22568;DHT22;11450;50.818;4.382;2022-10-26T02:17:45;15.50;99.90
22568;DHT22;11450;50.818;4.382;2022-10-26T02:19:53;15.50;99.90
22568;DHT22;11450;50.818;4.382;2022-10-26T02:22:26;15.60;99.90
22568;DHT22;11450;50.818;4.382;2022-10-26T02:24:53;15.60;99.90
22568;DHT22;11450;50.818;4.382;2022-10-26T02:27:26;15.80;99.90
22568;DHT22;11450;50.818;4.382;2022-10-26T02:29:54;15.70;99.90
22568;DHT22;11450;50.818;4.382;2022-10-26T02:32:22;15.70;99.90
22568;DHT22;11450;50.818;4.382;2022-10-26T02:35:02;15.80;99.90
22568;DHT22;11450;50.818;4.382;2022-10-26T02:37:31;15.80;99.90
22568;DHT22;11450;50.818;4.382;2022-10-26T02:39:59;15.90;99.90
22568;DHT22;11450;50.818;4.382;2022-10-26T02:42:27;15.80;99.90
22568;DHT22;11450;50.818;4.382;2022-10-26T02:45:01;15.90;99.90
22568;DHT22;11450;50.818;4.382;2022-10-26T02:47:28;15.80;99.90
22568;DHT22;11450;50.818;4.382;2022-10-26T02:49:54;15.80;99.90
22568;DHT22;11450;50.818;4.382;2022-10-26T02:52:45;15.90;99.90
22568;DHT22;11450;50.818;4.382;2022-10-26T02:55:21;15.90;99.90
22568;DHT22;11450;50.818;4.382;2022-10-26T02:57:54;15.90;99.90
22568;DHT22;11450;50.818;4.382;2022-10-26T03:00:21;15.90;99.90
22568;DHT22;11450;50.818;4.382;2022-10-26T03:02:55;15.90;99.90
22568;DHT22;11450;50.818;4.382;2022-10-26T03:05:25;16.10;99.90
22568;DHT22;11450;50.818;4.382;2022-10-26T03:07:51;15.90;99.90
22568;DHT22;11450;50.818;4.382;2022-10-26T03:10:17;15.90;99.90
22568;DHT22;11450;50.818;4.382;2022-10-26T03:12:43;16.00;99.90
22568;DHT22;11450;50.818;4.382;2022-10-26T03:15:09;16.10;99.90
22568;DHT22;11450;50.818;4.382;2022-10-26T03:17:34;16.00;99.90
22568;DHT22;11450;50.818;4.382;2022-10-26T03:20:00;16.10;99.90
22568;DHT22;11450;50.818;4.382;2022-10-26T03:22:26;16.10;99.90
22568;DHT22;11450;50.818;4.382;2022-10-26T03:24:52;16.20;99.90
22568;DHT22;11450;50.818;4.382;2022-10-26T03:27:17;16.10;99.90
22568;DHT22;11450;50.818;4.382;2022-10-26T03:29:43;16.20;99.90
22568;DHT22;11450;50.818;4.382;2022-10-26T03:32:09;16.10;99.90
22568;DHT22;11450;50.818;4.382;2022-10-26T03:34:34;16.20;99.90
22568;DHT22;11450;50.818;4.382;2022-10-26T03:37:00;16.20;99.90
22568;DHT22;11450;50.818;4.382;2022-10-26T03:39:26;16.20;99.90
22568;DHT22;11450;50.818;4.382;2022-10-26T03:41:51;16.20;99.90
22568;DHT22;11450;50.818;4.382;2022-10-26T03:44:17;16.10;99.90
22568;DHT22;11450;50.818;4.382;2022-10-26T03:46:43;16.20;99.90
22568;DHT22;11450;50.818;4.382;2022-10-26T03:49:08;16.10;99.90
22568;DHT22;11450;50.818;4.382;2022-10-26T03:51:34;16.00;99.90
22568;DHT22;11450;50.818;4.382;2022-10-26T03:53:59;16.10;99.90
22568;DHT22;11450;50.818;4.382;2022-10-26T03:56:25;16.10;99.90
22568;DHT22;11450;50.818;4.382;2022-10-26T03:58:51;16.20;99.90
22568;DHT22;11450;50.818;4.382;2022-10-26T04:01:16;16.10;99.90
22568;DHT22;11450;50.818;4.382;2022-10-26T04:03:42;16.10;99.90
22568;DHT22;11450;50.818;4.382;2022-10-26T04:06:10;16.10;99.90
22568;DHT22;11450;50.818;4.382;2022-10-26T04:08:36;16.00;99.90
22568;DHT22;11450;50.818;4.382;2022-10-26T04:11:02;16.10;99.90
22568;DHT22;11450;50.818;4.382;2022-10-26T04:13:27;16.10;99.90
22568;DHT22;11450;50.818;4.382;2022-10-26T04:15:53;16.00;99.90
22568;DHT22;11450;50.818;4.382;2022-10-26T04:18:19;16.00;99.90
22568;DHT22;11450;50.818;4.382;2022-10-26T04:20:45;15.90;99.90
22568;DHT22;11450;50.818;4.382;2022-10-26T04:23:13;15.90;99.90
22568;DHT22;11450;50.818;4.382;2022-10-26T04:25:39;15.90;99.90
22568;DHT22;11450;50.818;4.382;2022-10-26T04:28:06;15.90;99.90
22568;DHT22;11450;50.818;4.382;2022-10-26T04:30:33;15.90;99.90
22568;DHT22;11450;50.818;4.382;2022-10-26T04:32:59;15.90;99.90
22568;DHT22;11450;50.818;4.382;2022-10-26T04:35:34;15.90;99.90
22568;DHT22;11450;50.818;4.382;2022-10-26T04:38:02;15.90;99.90
22568;DHT22;11450;50.818;4.382;2022-10-26T04:40:28;16.10;99.90
22568;DHT22;11450;50.818;4.382;2022-10-26T04:42:54;15.90;99.90
22568;DHT22;11450;50.818;4.382;2022-10-26T04:45:20;16.00;99.90
22568;DHT22;11450;50.818;4.382;2022-10-26T04:47:46;16.10;99.90
22568;DHT22;11450;50.818;4.382;2022-10-26T04:50:13;16.00;99.90
22568;DHT22;11450;50.818;4.382;2022-10-26T04:52:39;16.10;99.90
22568;DHT22;11450;50.818;4.382;2022-10-26T04:55:06;16.00;99.90
22568;DHT22;11450;50.818;4.382;2022-10-26T04:57:34;15.90;99.90
22568;DHT22;11450;50.818;4.382;2022-10-26T05:00:03;15.90;99.90
22568;DHT22;11450;50.818;4.382;2022-10-26T05:02:29;15.90;99.90
22568;DHT22;11450;50.818;4.382;2022-10-26T05:04:54;16.00;99.90
22568;DHT22;11450;50.818;4.382;2022-10-26T05:07:20;15.80;99.90
22568;DHT22;11450;50.818;4.382;2022-10-26T05:09:46;15.80;99.90
22568;DHT22;11450;50.818;4.382;2022-10-26T05:12:11;16.00;99.90
22568;DHT22;11450;50.818;4.382;2022-10-26T05:14:37;15.90;99.90
22568;DHT22;11450;50.818;4.382;2022-10-26T05:17:03;15.90;99.90
22568;DHT22;11450;50.818;4.382;2022-10-26T05:19:28;15.80;99.90
22568;DHT22;11450;50.818;4.382;2022-10-26T05:21:54;15.90;99.90
22568;DHT22;11450;50.818;4.382;2022-10-26T05:24:20;15.90;99.90
22568;DHT22;11450;50.818;4.382;2022-10-26T05:26:45;15.80;99.90
22568;DHT22;11450;50.818;4.382;2022-10-26T05:29:11;15.80;99.90
22568;DHT22;11450;50.818;4.382;2022-10-26T05:31:36;15.80;99.90
22568;DHT22;11450;50.818;4.382;2022-10-26T05:34:02;15.70;99.90
22568;DHT22;11450;50.818;4.382;2022-10-26T05:36:28;15.90;99.90
22568;DHT22;11450;50.818;4.382;2022-10-26T05:38:57;15.80;99.90
22568;DHT22;11450;50.818;4.382;2022-10-26T05:41:23;15.70;99.90
22568;DHT22;11450;50.818;4.382;2022-10-26T05:43:49;15.80;99.90
22568;DHT22;11450;50.818;4.382;2022-10-26T05:46:14;15.70;99.90
22568;DHT22;11450;50.818;4.382;2022-10-26T05:48:40;15.80;99.90
22568;DHT22;11450;50.818;4.382;2022-10-26T05:51:06;15.70;99.90
22568;DHT22;11450;50.818;4.382;2022-10-26T05:53:31;15.70;99.90
22568;DHT22;11450;50.818;4.382;2022-10-26T05:55:57;15.70;99.90
22568;DHT22;11450;50.818;4.382;2022-10-26T05:58:24;15.70;99.90
22568;DHT22;11450;50.818;4.382;2022-10-26T06:06:58;15.60;99.90
22568;DHT22;11450;50.818;4.382;2022-10-26T06:09:25;15.60;99.90
22568;DHT22;11450;50.818;4.382;2022-10-26T06:11:51;15.60;99.90
22568;DHT22;11450;50.818;4.382;2022-10-26T06:14:16;15.60;99.90
22568;DHT22;11450;50.818;4.382;2022-10-26T06:19:38;15.60;99.90
22568;DHT22;11450;50.818;4.382;2022-10-26T06:26:25;15.60;99.90
22568;DHT22;11450;50.818;4.382;2022-10-26T06:29:01;15.60;99.90
22568;DHT22;11450;50.818;4.382;2022-10-26T06:31:23;15.50;99.90
22568;DHT22;11450;50.818;4.382;2022-10-26T06:33:51;15.50;99.90
22568;DHT22;11450;50.818;4.382;2022-10-26T06:36:22;15.50;99.90
22568;DHT22;11450;50.818;4.382;2022-10-26T06:39:07;15.40;99.90
22568;DHT22;11450;50.818;4.382;2022-10-26T06:41:37;15.50;99.90
22568;DHT22;11450;50.818;4.382;2022-10-26T06:44:04;15.50;99.90
22568;DHT22;11450;50.818;4.382;2022-10-26T06:46:45;15.50;99.90
22568;DHT22;11450;50.818;4.382;2022-10-26T06:52:00;15.60;99.90
22568;DHT22;11450;50.818;4.382;2022-10-26T06:54:52;15.60;99.90
22568;DHT22;11450;50.818;4.382;2022-10-26T06:57:21;15.60;99.90
22568;DHT22;11450;50.818;4.382;2022-10-26T06:59:55;15.70;99.90
22568;DHT22;11450;50.818;4.382;2022-10-26T07:02:22;15.70;99.90
22568;DHT22;11450;50.818;4.382;2022-10-26T07:04:48;15.60;99.90
22568;DHT22;11450;50.818;4.382;2022-10-26T07:07:17;15.60;99.90
22568;DHT22;11450;50.818;4.382;2022-10-26T07:09:43;15.60;99.90
22568;DHT22;11450;50.818;4.382;2022-10-26T07:12:09;15.60;99.90
22568;DHT22;11450;50.818;4.382;2022-10-26T07:14:35;15.60;99.90
22568;DHT22;11450;50.818;4.382;2022-10-26T07:17:02;15.70;99.90
22568;DHT22;11450;50.818;4.382;2022-10-26T07:19:28;15.70;99.90
22568;DHT22;11450;50.818;4.382;2022-10-26T07:21:55;15.70;99.90
22568;DHT22;11450;50.818;4.382;2022-10-26T07:24:24;15.80;99.90
22568;DHT22;11450;50.818;4.382;2022-10-26T07:26:53;15.70;99.90
22568;DHT22;11450;50.818;4.382;2022-10-26T07:29:20;15.80;99.90
22568;DHT22;11450;50.818;4.382;2022-10-26T07:31:45;15.80;99.90
22568;DHT22;11450;50.818;4.382;2022-10-26T07:34:11;15.80;99.90
22568;DHT22;11450;50.818;4.382;2022-10-26T07:36:52;15.80;99.90
22568;DHT22;11450;50.818;4.382;2022-10-26T07:39:18;15.90;99.90
22568;DHT22;11450;50.818;4.382;2022-10-26T07:41:44;16.00;99.90
22568;DHT22;11450;50.818;4.382;2022-10-26T07:44:11;15.90;99.90
22568;DHT22;11450;50.818;4.382;2022-10-26T07:46:37;16.10;99.90
22568;DHT22;11450;50.818;4.382;2022-10-26T07:49:02;16.00;99.90
22568;DHT22;11450;50.818;4.382;2022-10-26T07:51:28;16.10;99.90
22568;DHT22;11450;50.818;4.382;2022-10-26T07:53:54;16.10;99.90
22568;DHT22;11450;50.818;4.382;2022-10-26T07:56:19;16.20;99.90
22568;DHT22;11450;50.818;4.382;2022-10-26T07:58:45;16.30;99.90
22568;DHT22;11450;50.818;4.382;2022-10-26T08:01:13;16.30;99.90
22568;DHT22;11450;50.818;4.382;2022-10-26T08:03:39;16.30;99.90
22568;DHT22;11450;50.818;4.382;2022-10-26T08:06:05;16.30;99.90
22568;DHT22;11450;50.818;4.382;2022-10-26T08:08:33;16.40;99.90
22568;DHT22;11450;50.818;4.382;2022-10-26T08:10:58;16.40;99.90
22568;DHT22;11450;50.818;4.382;2022-10-26T08:13:24;16.40;99.90
22568;DHT22;11450;50.818;4.382;2022-10-26T08:15:59;16.30;99.90
22568;DHT22;11450;50.818;4.382;2022-10-26T08:18:25;16.50;99.90
22568;DHT22;11450;50.818;4.382;2022-10-26T08:20:51;16.50;99.90
22568;DHT22;11450;50.818;4.382;2022-10-26T08:23:17;16.50;99.90
22568;DHT22;11450;50.818;4.382;2022-10-26T08:25:43;16.50;99.90
22568;DHT22;11450;50.818;4.382;2022-10-26T08:28:08;16.50;99.90
22568;DHT22;11450;50.818;4.382;2022-10-26T08:30:34;16.70;99.90
22568;DHT22;11450;50.818;4.382;2022-10-26T08:33:01;16.70;99.90
22568;DHT22;11450;50.818;4.382;2022-10-26T08:35:28;16.80;99.90
22568;DHT22;11450;50.818;4.382;2022-10-26T08:37:54;16.80;99.90
22568;DHT22;11450;50.818;4.382;2022-10-26T08:40:35;16.80;99.90
22568;DHT22;11450;50.818;4.382;2022-10-26T08:43:15;16.80;99.90
22568;DHT22;11450;50.818;4.382;2022-10-26T08:45:52;16.80;99.90
22568;DHT22;11450;50.818;4.382;2022-10-26T08:48:21;16.90;99.90
22568;DHT22;11450;50.818;4.382;2022-10-26T08:50:54;16.90;99.90
22568;DHT22;11450;50.818;4.382;2022-10-26T08:53:37;17.00;99.90
22568;DHT22;11450;50.818;4.382;2022-10-26T08:56:26;17.00;99.90
22568;DHT22;11450;50.818;4.382;2022-10-26T08:58:56;17.10;99.90
22568;DHT22;11450;50.818;4.382;2022-10-26T09:01:27;17.20;99.90
22568;DHT22;11450;50.818;4.382;2022-10-26T09:04:00;17.20;99.90
22568;DHT22;11450;50.818;4.382;2022-10-26T09:09:02;17.40;99.90
22568;DHT22;11450;50.818;4.382;2022-10-26T09:15:01;17.40;99.90
22568;DHT22;11450;50.818;4.382;2022-10-26T09:20:40;17.60;99.90
22568;DHT22;11450;50.818;4.382;2022-10-26T09:26:00;17.60;99.90
22568;DHT22;11450;50.818;4.382;2022-10-26T09:28:28;17.70;99.90
22568;DHT22;11450;50.818;4.382;2022-10-26T09:30:58;17.80;99.90
22568;DHT22;11450;50.818;4.382;2022-10-26T09:33:24;17.80;99.90
22568;DHT22;11450;50.818;4.382;2022-10-26T09:35:56;17.80;99.90
22568;DHT22;11450;50.818;4.382;2022-10-26T09:38:35;17.90;99.90
22568;DHT22;11450;50.818;4.382;2022-10-26T09:43:48;17.90;99.90
22568;DHT22;11450;50.818;4.382;2022-10-26T09:46:20;17.90;99.90
22568;DHT22;11450;50.818;4.382;2022-10-26T09:48:51;17.90;99.90
22568;DHT22;11450;50.818;4.382;2022-10-26T09:51:19;17.90;99.90
22568;DHT22;11450;50.818;4.382;2022-10-26T09:53:46;18.00;99.90
22568;DHT22;11450;50.818;4.382;2022-10-26T09:56:16;18.00;99.90
22568;DHT22;11450;50.818;4.382;2022-10-26T09:59:03;18.10;99.90
22568;DHT22;11450;50.818;4.382;2022-10-26T10:01:31;18.10;99.90
22568;DHT22;11450;50.818;4.382;2022-10-26T10:06:45;18.30;99.90
22568;DHT22;11450;50.818;4.382;2022-10-26T10:09:16;18.30;99.90
22568;DHT22;11450;50.818;4.382;2022-10-26T10:11:54;18.20;99.90
22568;DHT22;11450;50.818;4.382;2022-10-26T10:17:06;18.30;99.90
22568;DHT22;11450;50.818;4.382;2022-10-26T10:19:36;18.50;99.90
22568;DHT22;11450;50.818;4.382;2022-10-26T10:22:17;18.50;99.90
22568;DHT22;11450;50.818;4.382;2022-10-26T10:24:54;18.60;99.90
22568;DHT22;11450;50.818;4.382;2022-10-26T10:27:20;18.60;99.90
22568;DHT22;11450;50.818;4.382;2022-10-26T10:29:52;18.70;99.90
22568;DHT22;11450;50.818;4.382;2022-10-26T10:32:29;18.70;99.90
22568;DHT22;11450;50.818;4.382;2022-10-26T10:34:58;18.80;99.90
22568;DHT22;11450;50.818;4.382;2022-10-26T10:37:40;18.70;99.90
22568;DHT22;11450;50.818;4.382;2022-10-26T10:40:08;18.80;99.90
22568;DHT22;11450;50.818;4.382;2022-10-26T10:42:39;18.80;99.90
22568;DHT22;11450;50.818;4.382;2022-10-26T10:45:12;18.90;99.90
22568;DHT22;11450;50.818;4.382;2022-10-26T10:48:01;18.90;99.90
22568;DHT22;11450;50.818;4.382;2022-10-26T10:50:28;19.00;99.90
22568;DHT22;11450;50.818;4.382;2022-10-26T10:53:13;18.90;99.90
22568;DHT22;11450;50.818;4.382;2022-10-26T10:55:51;19.00;99.90
22568;DHT22;11450;50.818;4.382;2022-10-26T11:01:20;18.90;99.90
22568;DHT22;11450;50.818;4.382;2022-10-26T11:04:06;18.90;99.90
22568;DHT22;11450;50.818;4.382;2022-10-26T11:06:38;18.80;99.90
22568;DHT22;11450;50.818;4.382;2022-10-26T11:09:14;19.00;99.90
22568;DHT22;11450;50.818;4.382;2022-10-26T11:11:46;19.00;99.90
22568;DHT22;11450;50.818;4.382;2022-10-26T11:14:44;19.00;99.90
22568;DHT22;11450;50.818;4.382;2022-10-26T11:17:18;19.00;99.90
22568;DHT22;11450;50.818;4.382;2022-10-26T11:19:47;19.00;99.90
22568;DHT22;11450;50.818;4.382;2022-10-26T11:22:19;19.00;99.90
22568;DHT22;11450;50.818;4.382;2022-10-26T11:24:52;19.00;99.90
22568;DHT22;11450;50.818;4.382;2022-10-26T11:27:26;18.90;99.90
22568;DHT22;11450;50.818;4.382;2022-10-26T11:33:08;18.90;99.90
22568;DHT22;11450;50.818;4.382;2022-10-26T11:35:36;18.90;99.90
22568;DHT22;11450;50.818;4.382;2022-10-26T11:41:32;19.00;99.90
22568;DHT22;11450;50.818;4.382;2022-10-26T11:44:15;19.20;99.90
22568;DHT22;11450;50.818;4.382;2022-10-26T11:47:15;19.20;99.90
22568;DHT22;11450;50.818;4.382;2022-10-26T11:50:09;19.10;99.90
22568;DHT22;11450;50.818;4.382;2022-10-26T11:52:45;19.20;99.90
22568;DHT22;11450;50.818;4.382;2022-10-26T11:55:12;19.20;99.90
22568;DHT22;11450;50.818;4.382;2022-10-26T11:57:38;19.30;99.90
22568;DHT22;11450;50.818;4.382;2022-10-26T12:00:17;19.20;99.90
22568;DHT22;11450;50.818;4.382;2022-10-26T12:05:51;19.20;99.90
22568;DHT22;11450;50.818;4.382;2022-10-26T12:08:39;19.30;99.90
22568;DHT22;11450;50.818;4.382;2022-10-26T12:14:38;19.40;99.90
22568;DHT22;11450;50.818;4.382;2022-10-26T12:17:30;19.40;99.90
22568;DHT22;11450;50.818;4.382;2022-10-26T12:22:51;19.50;99.90
22568;DHT22;11450;50.818;4.382;2022-10-26T12:25:20;19.60;99.90
22568;DHT22;11450;50.818;4.382;2022-10-26T12:30:32;19.60;99.90
22568;DHT22;11450;50.818;4.382;2022-10-26T12:33:00;19.60;99.90
22568;DHT22;11450;50.818;4.382;2022-10-26T12:35:29;19.70;99.90
22568;DHT22;11450;50.818;4.382;2022-10-26T12:37:56;19.70;99.90
22568;DHT22;11450;50.818;4.382;2022-10-26T12:40:37;19.60;99.90
22568;DHT22;11450;50.818;4.382;2022-10-26T12:43:35;19.60;99.90
22568;DHT22;11450;50.818;4.382;2022-10-26T12:48:59;19.80;99.90
22568;DHT22;11450;50.818;4.382;2022-10-26T13:07:37;20.00;99.90
22568;DHT22;11450;50.818;4.382;2022-10-26T13:10:28;20.10;99.90
22568;DHT22;11450;50.818;4.382;2022-10-26T13:12:57;20.10;99.90
22568;DHT22;11450;50.818;4.382;2022-10-26T13:18:17;20.10;99.90
22568;DHT22;11450;50.818;4.382;2022-10-26T13:21:08;20.20;99.90
22568;DHT22;11450;50.818;4.382;2022-10-26T13:23:39;20.20;99.90
22568;DHT22;11450;50.818;4.382;2022-10-26T13:26:11;20.20;99.90
22568;DHT22;11450;50.818;4.382;2022-10-26T13:31:05;20.20;99.90
22568;DHT22;11450;50.818;4.382;2022-10-26T13:33:37;20.10;99.90
22568;DHT22;11450;50.818;4.382;2022-10-26T13:36:26;20.20;99.90
22568;DHT22;11450;50.818;4.382;2022-10-26T13:38:53;20.20;99.90
22568;DHT22;11450;50.818;4.382;2022-10-26T13:41:29;20.20;99.90
22568;DHT22;11450;50.818;4.382;2022-10-26T13:43:58;20.30;99.90
22568;DHT22;11450;50.818;4.382;2022-10-26T13:46:26;20.30;99.90
22568;DHT22;11450;50.818;4.382;2022-10-26T13:48:57;20.30;99.90
22568;DHT22;11450;50.818;4.382;2022-10-26T13:51:34;20.30;99.90
22568;DHT22;11450;50.818;4.382;2022-10-26T13:54:12;20.20;99.90
22568;DHT22;11450;50.818;4.382;2022-10-26T13:56:46;20.40;99.90
22568;DHT22;11450;50.818;4.382;2022-10-26T13:59:15;20.30;99.90
22568;DHT22;11450;50.818;4.382;2022-10-26T14:01:40;20.30;99.90
22568;DHT22;11450;50.818;4.382;2022-10-26T14:04:17;20.30;99.90
22568;DHT22;11450;50.818;4.382;2022-10-26T14:06:51;20.20;99.90
22568;DHT22;11450;50.818;4.382;2022-10-26T14:09:19;20.30;99.90
22568;DHT22;11450;50.818;4.382;2022-10-26T14:11:50;20.10;99.90
22568;DHT22;11450;50.818;4.382;2022-10-26T14:14:20;20.20;99.90
22568;DHT22;11450;50.818;4.382;2022-10-26T14:16:49;20.20;99.90
22568;DHT22;11450;50.818;4.382;2022-10-26T14:21:51;20.40;99.90
22568;DHT22;11450;50.818;4.382;2022-10-26T14:24:29;20.40;99.90
22568;DHT22;11450;50.818;4.382;2022-10-26T14:27:00;20.40;99.90
22568;DHT22;11450;50.818;4.382;2022-10-26T14:29:29;20.30;99.90
22568;DHT22;11450;50.818;4.382;2022-10-26T14:31:56;20.20;99.90
22568;DHT22;11450;50.818;4.382;2022-10-26T14:34:22;20.30;99.90
22568;DHT22;11450;50.818;4.382;2022-10-26T14:36:57;20.30;99.90
22568;DHT22;11450;50.818;4.382;2022-10-26T14:39:42;20.30;99.90
22568;DHT22;11450;50.818;4.382;2022-10-26T14:45:29;20.40;99.90
22568;DHT22;11450;50.818;4.382;2022-10-26T14:47:57;20.40;99.90
22568;DHT22;11450;50.818;4.382;2022-10-26T14:50:24;20.50;99.90
22568;DHT22;11450;50.818;4.382;2022-10-26T14:53:16;20.50;99.90
22568;DHT22;11450;50.818;4.382;2022-10-26T14:56:03;20.50;99.90
22568;DHT22;11450;50.818;4.382;2022-10-26T14:58:30;20.50;99.90
22568;DHT22;11450;50.818;4.382;2022-10-26T15:01:15;20.60;99.90
22568;DHT22;11450;50.818;4.382;2022-10-26T15:03:43;20.50;99.90
22568;DHT22;11450;50.818;4.382;2022-10-26T15:08:55;20.30;99.90
22568;DHT22;11450;50.818;4.382;2022-10-26T15:14:42;20.30;99.90
22568;DHT22;11450;50.818;4.382;2022-10-26T15:17:20;20.30;99.90
22568;DHT22;11450;50.818;4.382;2022-10-26T15:19:46;20.20;99.90
22568;DHT22;11450;50.818;4.382;2022-10-26T15:22:26;20.20;99.90
22568;DHT22;11450;50.818;4.382;2022-10-26T15:24:54;20.20;99.90
22568;DHT22;11450;50.818;4.382;2022-10-26T15:27:21;20.10;99.90
22568;DHT22;11450;50.818;4.382;2022-10-26T15:29:49;20.10;99.90
22568;DHT22;11450;50.818;4.382;2022-10-26T15:32:30;20.10;99.90
22568;DHT22;11450;50.818;4.382;2022-10-26T15:35:28;20.10;99.90
22568;DHT22;11450;50.818;4.382;2022-10-26T15:37:55;20.10;99.90
22568;DHT22;11450;50.818;4.382;2022-10-26T15:40:23;20.10;99.90
22568;DHT22;11450;50.818;4.382;2022-10-26T15:42:53;20.10;99.90
22568;DHT22;11450;50.818;4.382;2022-10-26T15:45:29;20.10;99.90
22568;DHT22;11450;50.818;4.382;2022-10-26T15:47:59;20.10;99.90
22568;DHT22;11450;50.818;4.382;2022-10-26T15:50:40;20.00;99.90
22568;DHT22;11450;50.818;4.382;2022-10-26T15:53:17;20.00;99.90
22568;DHT22;11450;50.818;4.382;2022-10-26T15:55:43;20.00;99.90
22568;DHT22;11450;50.818;4.382;2022-10-26T15:58:10;20.00;99.90
22568;DHT22;11450;50.818;4.382;2022-10-26T16:00:36;20.00;99.90
22568;DHT22;11450;50.818;4.382;2022-10-26T16:03:02;19.90;99.90
22568;DHT22;11450;50.818;4.382;2022-10-26T16:05:28;19.90;99.90
22568;DHT22;11450;50.818;4.382;2022-10-26T16:07:54;19.90;99.90
22568;DHT22;11450;50.818;4.382;2022-10-26T16:10:22;19.90;99.90
22568;DHT22;11450;50.818;4.382;2022-10-26T16:12:49;19.90;99.90
22568;DHT22;11450;50.818;4.382;2022-10-26T16:15:20;19.90;99.90
22568;DHT22;11450;50.818;4.382;2022-10-26T16:17:47;19.70;99.90
22568;DHT22;11450;50.818;4.382;2022-10-26T16:20:23;19.70;99.90
22568;DHT22;11450;50.818;4.382;2022-10-26T16:22:52;19.70;99.90
22568;DHT22;11450;50.818;4.382;2022-10-26T16:25:20;19.70;99.90
22568;DHT22;11450;50.818;4.382;2022-10-26T16:28:00;19.70;99.90
22568;DHT22;11450;50.818;4.382;2022-10-26T16:30:28;19.60;99.90
22568;DHT22;11450;50.818;4.382;2022-10-26T16:32:55;19.60;99.90
22568;DHT22;11450;50.818;4.382;2022-10-26T16:35:22;19.60;99.90
22568;DHT22;11450;50.818;4.382;2022-10-26T16:37:47;19.60;99.90
22568;DHT22;11450;50.818;4.382;2022-10-26T16:40:16;19.50;99.90
22568;DHT22;11450;50.818;4.382;2022-10-26T16:42:45;19.50;99.90
22568;DHT22;11450;50.818;4.382;2022-10-26T16:45:11;19.50;99.90
22568;DHT22;11450;50.818;4.382;2022-10-26T16:47:38;19.50;99.90
22568;DHT22;11450;50.818;4.382;2022-10-26T16:50:06;19.40;99.90
22568;DHT22;11450;50.818;4.382;2022-10-26T16:52:33;19.40;99.90
22568;DHT22;11450;50.818;4.382;2022-10-26T16:55:03;19.30;99.90
22568;DHT22;11450;50.818;4.382;2022-10-26T16:57:30;19.30;99.90
22568;DHT22;11450;50.818;4.382;2022-10-26T16:59:55;19.30;99.90
22568;DHT22;11450;50.818;4.382;2022-10-26T17:02:22;19.30;99.90
22568;DHT22;11450;50.818;4.382;2022-10-26T17:04:48;19.30;99.90
22568;DHT22;11450;50.818;4.382;2022-10-26T17:07:13;19.20;99.90
22568;DHT22;11450;50.818;4.382;2022-10-26T17:09:39;19.30;99.90
22568;DHT22;11450;50.818;4.382;2022-10-26T17:12:06;19.20;99.90
22568;DHT22;11450;50.818;4.382;2022-10-26T17:14:32;19.20;99.90
22568;DHT22;11450;50.818;4.382;2022-10-26T17:16:59;19.20;99.90
22568;DHT22;11450;50.818;4.382;2022-10-26T17:19:25;19.20;99.90
22568;DHT22;11450;50.818;4.382;2022-10-26T17:21:50;19.20;99.90
22568;DHT22;11450;50.818;4.382;2022-10-26T17:24:18;19.20;99.90
22568;DHT22;11450;50.818;4.382;2022-10-26T17:26:44;19.20;99.90
22568;DHT22;11450;50.818;4.382;2022-10-26T17:29:12;19.20;99.90
22568;DHT22;11450;50.818;4.382;2022-10-26T17:31:39;19.20;99.90
22568;DHT22;11450;50.818;4.382;2022-10-26T17:34:05;19.20;99.90
22568;DHT22;11450;50.818;4.382;2022-10-26T17:36:31;19.20;99.90
22568;DHT22;11450;50.818;4.382;2022-10-26T17:38:58;19.10;99.90
22568;DHT22;11450;50.818;4.382;2022-10-26T17:41:30;19.10;99.90
22568;DHT22;11450;50.818;4.382;2022-10-26T17:43:56;19.10;99.90
22568;DHT22;11450;50.818;4.382;2022-10-26T17:46:23;19.00;99.90
22568;DHT22;11450;50.818;4.382;2022-10-26T17:48:57;19.10;99.90